createdAt,value
2017-09-13T00:00:49.238Z,2.27
2017-09-13T00:03:16.887Z,2.20
2017-09-13T00:05:44.518Z,1.70
2017-09-13T00:08:12.395Z,2.30
2017-09-13T00:10:40.016Z,1.97
2017-09-13T00:13:08.460Z,2.20
2017-09-13T00:15:36.137Z,2.10
2017-09-13T00:18:03.775Z,2.20
2017-09-13T00:20:31.446Z,2.70
2017-09-13T00:22:59.191Z,2.47
2017-09-13T00:25:26.829Z,2.37
2017-09-13T00:27:54.460Z,1.93
2017-09-13T00:30:22.886Z,1.97
2017-09-13T00:32:50.514Z,2.70
2017-09-13T00:35:18.143Z,1.90
2017-09-13T00:37:46.569Z,2.60
2017-09-13T00:40:14.194Z,2.10
2017-09-13T00:42:42.597Z,2.40
2017-09-13T00:45:10.253Z,3.40
2017-09-13T00:47:38.641Z,2.60
2017-09-13T00:50:06.277Z,3.60
2017-09-13T00:52:34.828Z,3.73
2017-09-13T00:55:02.499Z,3.40
2017-09-13T00:57:30.121Z,2.80
2017-09-13T00:59:57.904Z,3.80
2017-09-13T01:02:25.531Z,2.83
2017-09-13T01:04:53.257Z,3.53
2017-09-13T01:07:20.923Z,3.70
2017-09-13T01:09:48.757Z,3.80
2017-09-13T01:12:16.373Z,3.00
2017-09-13T01:14:44.788Z,4.30
2017-09-13T01:17:12.420Z,3.63
2017-09-13T01:19:40.055Z,4.53
2017-09-13T01:22:07.725Z,4.03
2017-09-13T01:24:36.267Z,3.90
2017-09-13T01:27:04.029Z,4.67
2017-09-13T01:29:31.793Z,4.67
2017-09-13T01:32:01.344Z,4.80
2017-09-13T01:34:29.733Z,4.07
2017-09-13T01:36:58.262Z,5.20
2017-09-13T01:39:26.028Z,4.53
2017-09-13T01:41:53.806Z,4.00
2017-09-13T01:44:21.448Z,5.20
2017-09-13T01:46:49.085Z,4.30
2017-09-13T01:49:16.794Z,4.20
2017-09-13T01:51:44.538Z,4.90
2017-09-13T01:54:12.215Z,4.90
2017-09-13T01:56:39.860Z,4.80
2017-09-13T01:59:07.513Z,3.90
2017-09-13T02:01:35.145Z,4.20
2017-09-13T02:04:02.797Z,4.73
2017-09-13T02:06:31.224Z,4.80
2017-09-13T02:08:58.840Z,4.03
2017-09-13T02:11:27.286Z,4.70
2017-09-13T02:13:55.041Z,4.10
2017-09-13T02:16:24.200Z,4.57
2017-09-13T02:18:51.808Z,4.20
2017-09-13T02:21:19.448Z,4.70
2017-09-13T02:23:47.060Z,4.40
2017-09-13T02:26:15.516Z,4.27
2017-09-13T02:28:43.178Z,3.90
2017-09-13T02:31:10.843Z,3.23
2017-09-13T02:33:38.489Z,4.17
2017-09-13T02:36:06.109Z,3.63
2017-09-13T02:38:33.778Z,4.30
2017-09-13T02:41:01.484Z,4.27
2017-09-13T02:43:29.328Z,4.00
2017-09-13T02:45:56.944Z,4.13
2017-09-13T02:48:25.334Z,3.57
2017-09-13T02:50:53.047Z,5.07
2017-09-13T02:53:20.793Z,3.67
2017-09-13T02:55:48.452Z,3.63
2017-09-13T02:58:16.077Z,3.63
2017-09-13T03:00:43.807Z,3.60
2017-09-13T03:03:11.452Z,3.43
2017-09-13T03:05:39.081Z,2.67
2017-09-13T03:08:06.866Z,2.90
2017-09-13T03:10:34.488Z,3.67
2017-09-13T03:13:02.147Z,2.90
2017-09-13T03:15:29.870Z,2.63
2017-09-13T03:17:57.525Z,2.90
2017-09-13T03:20:25.186Z,3.10
2017-09-13T03:22:52.855Z,2.53
2017-09-13T03:25:20.524Z,2.50
2017-09-13T03:27:48.293Z,2.87
2017-09-13T03:30:16.027Z,2.23
2017-09-13T03:32:43.644Z,2.30
2017-09-13T03:35:12.073Z,2.50
2017-09-13T03:37:39.704Z,2.67
2017-09-13T03:40:07.366Z,2.40
2017-09-13T03:42:35.077Z,2.30
2017-09-13T03:45:02.816Z,2.37
2017-09-13T03:47:30.445Z,2.30
2017-09-13T03:49:58.158Z,1.70
2017-09-13T03:52:25.780Z,2.47
2017-09-13T03:54:53.492Z,1.90
2017-09-13T03:57:21.332Z,1.87
2017-09-13T03:59:48.993Z,2.20
2017-09-13T04:02:16.657Z,1.90
2017-09-13T04:04:44.282Z,1.80
2017-09-13T04:07:11.998Z,1.73
2017-09-13T04:09:39.642Z,1.90
2017-09-13T04:12:07.297Z,1.97
2017-09-13T04:14:34.966Z,1.80
2017-09-13T04:17:02.650Z,2.00
2017-09-13T04:19:30.292Z,1.93
2017-09-13T04:21:57.904Z,1.60
2017-09-13T04:24:26.340Z,1.87
2017-09-13T04:26:53.982Z,1.60
2017-09-13T04:29:21.757Z,1.70
2017-09-13T04:31:49.390Z,1.60
2017-09-13T04:34:17.052Z,1.50
2017-09-13T04:36:44.668Z,2.10
2017-09-13T04:39:12.302Z,1.73
2017-09-13T04:41:40.066Z,1.50
2017-09-13T04:44:07.707Z,2.40
2017-09-13T04:46:35.413Z,1.57
2017-09-13T04:49:03.159Z,1.60
2017-09-13T04:51:30.934Z,1.50
2017-09-13T04:53:58.562Z,1.70
2017-09-13T04:56:26.240Z,1.77
2017-09-13T04:58:53.893Z,1.63
2017-09-13T05:01:21.527Z,1.43
2017-09-13T05:03:49.177Z,1.87
2017-09-13T05:06:17.586Z,1.70
2017-09-13T05:08:45.287Z,1.70
2017-09-13T05:11:12.906Z,1.97
2017-09-13T05:13:40.612Z,1.70
2017-09-13T05:16:08.268Z,1.97
2017-09-13T05:18:35.901Z,2.00
2017-09-13T05:21:03.545Z,1.60
2017-09-13T05:23:31.168Z,1.57
2017-09-13T05:25:59.005Z,1.63
2017-09-13T05:28:26.626Z,1.90
2017-09-13T05:30:54.433Z,1.77
2017-09-13T05:33:22.056Z,1.83
2017-09-13T05:35:49.710Z,1.87
2017-09-13T05:38:17.411Z,1.30
2017-09-13T05:40:45.178Z,1.47
2017-09-13T05:43:12.820Z,1.63
2017-09-13T05:45:40.605Z,1.70
2017-09-13T05:48:08.254Z,2.73
2017-09-13T05:50:35.884Z,1.00
2017-09-13T05:53:04.306Z,1.20
2017-09-13T05:55:31.952Z,1.30
2017-09-13T05:57:59.624Z,1.17
2017-09-13T06:00:27.394Z,2.23
2017-09-13T06:02:55.016Z,1.23
2017-09-13T06:05:22.666Z,1.67
2017-09-13T06:07:51.198Z,1.10
2017-09-13T06:10:18.874Z,1.43
2017-09-13T06:12:46.499Z,1.67
2017-09-13T06:15:14.287Z,1.33
2017-09-13T06:17:41.913Z,1.80
2017-09-13T06:20:09.568Z,1.63
2017-09-13T06:22:37.211Z,1.40
2017-09-13T06:25:05.670Z,1.70
2017-09-13T06:27:34.831Z,1.93
2017-09-13T06:30:02.508Z,1.70
2017-09-13T06:32:30.178Z,2.00
2017-09-13T06:34:57.936Z,0.97
2017-09-13T06:37:25.622Z,1.60
2017-09-13T06:39:53.252Z,2.00
2017-09-13T06:42:21.024Z,1.80
2017-09-13T06:44:48.658Z,1.07
2017-09-13T06:47:16.391Z,1.13
2017-09-13T06:49:44.932Z,1.60
2017-09-13T06:52:12.716Z,1.50
2017-09-13T06:54:40.345Z,1.23
2017-09-13T06:57:08.019Z,2.00
2017-09-13T06:59:35.672Z,1.10
2017-09-13T07:02:03.340Z,1.20
2017-09-13T07:04:31.023Z,2.00
2017-09-13T07:06:58.678Z,2.00
2017-09-13T07:09:26.331Z,1.83
2017-09-13T07:11:53.966Z,0.93
2017-09-13T07:14:21.621Z,2.00
2017-09-13T07:16:51.807Z,3.37
2017-09-13T07:19:19.526Z,1.10
2017-09-13T07:21:47.390Z,1.40
2017-09-13T07:24:15.903Z,1.30
2017-09-13T07:26:44.329Z,1.13
2017-09-13T07:29:11.952Z,1.10
2017-09-13T07:31:39.609Z,1.03
2017-09-13T07:34:08.803Z,1.30
2017-09-13T07:36:36.458Z,1.40
2017-09-13T07:39:04.114Z,1.20
2017-09-13T07:41:31.774Z,1.63
2017-09-13T07:43:59.430Z,1.63
2017-09-13T07:46:27.059Z,1.40
2017-09-13T07:48:54.700Z,1.13
2017-09-13T07:51:23.079Z,0.90
2017-09-13T07:53:51.543Z,0.90
2017-09-13T07:56:19.933Z,1.13
2017-09-13T07:58:48.358Z,0.80
2017-09-13T08:01:16.063Z,1.60
2017-09-13T08:03:43.732Z,1.80
2017-09-13T08:06:11.503Z,1.40
2017-09-13T08:08:39.893Z,0.93
2017-09-13T08:11:08.438Z,1.53
2017-09-13T08:13:36.091Z,1.83
2017-09-13T08:16:03.757Z,1.40
2017-09-13T08:18:31.386Z,1.20
2017-09-13T08:20:59.168Z,0.97
2017-09-13T08:23:26.855Z,1.53
2017-09-13T08:25:55.269Z,1.30
2017-09-13T08:28:22.932Z,1.20
2017-09-13T08:30:50.740Z,1.37
2017-09-13T08:33:18.357Z,0.97
2017-09-13T08:35:46.083Z,1.50
2017-09-13T08:38:13.802Z,1.30
2017-09-13T08:40:41.609Z,1.67
2017-09-13T08:43:09.268Z,1.50
2017-09-13T08:45:37.018Z,1.20
2017-09-13T08:48:04.665Z,1.23
2017-09-13T08:50:32.281Z,1.10
2017-09-13T08:53:00.703Z,1.53
2017-09-13T08:55:28.329Z,1.50
2017-09-13T08:57:57.886Z,1.50
2017-09-13T09:00:25.512Z,1.27
2017-09-13T09:02:53.147Z,1.13
2017-09-13T09:05:20.792Z,1.40
2017-09-13T09:07:48.473Z,1.20
2017-09-13T09:10:16.885Z,1.40
2017-09-13T09:12:44.530Z,1.50
2017-09-13T09:15:12.954Z,1.20
2017-09-13T09:17:40.578Z,1.10
2017-09-13T09:20:08.232Z,1.60
2017-09-13T09:22:36.759Z,1.37
2017-09-13T09:25:04.524Z,1.60
2017-09-13T09:27:33.542Z,1.93
2017-09-13T09:30:01.213Z,1.30
2017-09-13T09:32:29.693Z,1.40
2017-09-13T09:34:57.313Z,1.20
2017-09-13T09:37:25.085Z,1.40
2017-09-13T09:39:52.849Z,1.93
2017-09-13T09:42:20.497Z,1.50
2017-09-13T09:44:48.137Z,1.70
2017-09-13T09:47:15.826Z,1.80
2017-09-13T09:49:43.602Z,1.93
2017-09-13T09:52:11.284Z,1.60
2017-09-13T09:54:40.481Z,1.90
2017-09-13T09:57:08.105Z,2.00
2017-09-13T09:59:35.769Z,1.77
2017-09-13T10:02:03.398Z,2.40
2017-09-13T10:04:31.822Z,1.80
2017-09-13T10:06:59.447Z,2.30
2017-09-13T10:09:27.083Z,2.17
2017-09-13T10:11:55.500Z,2.67
2017-09-13T10:14:23.124Z,2.83
2017-09-13T10:16:50.787Z,2.27
2017-09-13T10:19:19.185Z,2.20
2017-09-13T10:21:46.825Z,2.07
2017-09-13T10:24:14.442Z,1.90
2017-09-13T10:26:42.096Z,2.60
2017-09-13T10:29:09.734Z,2.63
2017-09-13T10:31:37.407Z,3.37
2017-09-13T10:34:05.056Z,2.23
2017-09-13T10:36:32.675Z,2.33
2017-09-13T10:39:00.313Z,2.43
2017-09-13T10:41:27.956Z,2.87
2017-09-13T10:43:55.606Z,1.23
2017-09-13T10:46:23.228Z,2.80
2017-09-13T10:48:50.863Z,2.90
2017-09-13T10:51:18.493Z,2.00
2017-09-13T10:53:46.166Z,2.37
2017-09-13T10:58:47.843Z,2.70
2017-09-13T11:01:15.492Z,2.70
2017-09-13T11:03:43.104Z,2.73
2017-09-13T11:06:10.752Z,2.03
2017-09-13T11:08:38.373Z,2.20
2017-09-13T11:11:06.016Z,2.07
2017-09-13T11:13:34.402Z,1.00
2017-09-13T11:16:02.066Z,1.37
2017-09-13T11:18:29.690Z,1.17
2017-09-13T11:20:57.322Z,0.90
2017-09-13T11:23:24.987Z,1.07
2017-09-13T11:25:52.609Z,0.90
2017-09-13T11:28:20.292Z,1.30
2017-09-13T11:30:47.937Z,1.40
2017-09-13T11:33:15.606Z,1.10
2017-09-13T11:35:43.256Z,1.13
2017-09-13T11:38:10.899Z,1.27
2017-09-13T11:40:39.405Z,1.60
2017-09-13T11:43:07.036Z,1.57
2017-09-13T11:45:34.698Z,2.93
2017-09-13T11:48:02.325Z,1.17
2017-09-13T11:50:30.030Z,1.00
2017-09-13T11:52:58.413Z,1.63
2017-09-13T11:55:26.834Z,1.80
2017-09-13T11:57:54.482Z,1.77
2017-09-13T12:00:22.200Z,1.50
2017-09-13T12:02:49.821Z,1.30
2017-09-13T12:05:17.438Z,1.70
2017-09-13T12:07:45.848Z,1.50
2017-09-13T12:10:13.466Z,0.90
2017-09-13T12:12:41.161Z,1.40
2017-09-13T12:15:08.786Z,1.10
2017-09-13T12:17:36.446Z,0.87
2017-09-13T12:20:04.076Z,0.90
2017-09-13T12:22:31.721Z,1.90
2017-09-13T12:24:59.360Z,0.90
2017-09-13T12:27:27.782Z,1.30
2017-09-13T12:29:55.407Z,0.90
2017-09-13T12:32:23.104Z,1.00
2017-09-13T12:34:50.756Z,1.23
2017-09-13T12:37:18.536Z,1.20
2017-09-13T12:39:46.224Z,1.60
2017-09-13T12:42:13.847Z,1.83
2017-09-13T12:44:41.733Z,1.00
2017-09-13T12:47:09.547Z,1.00
2017-09-13T12:49:37.238Z,1.07
2017-09-13T12:52:05.021Z,1.13
2017-09-13T12:54:32.690Z,0.80
2017-09-13T12:57:00.348Z,0.97
2017-09-13T12:59:27.982Z,1.50
2017-09-13T13:01:55.669Z,1.10
2017-09-13T13:04:23.337Z,0.83
2017-09-13T13:06:50.981Z,1.00
2017-09-13T13:09:18.611Z,0.93
2017-09-13T13:11:46.257Z,1.47
2017-09-13T13:14:14.797Z,0.97
2017-09-13T13:16:42.460Z,0.80
2017-09-13T13:19:10.099Z,0.90
2017-09-13T13:21:37.766Z,1.33
2017-09-13T13:24:05.384Z,0.70
2017-09-13T13:26:33.808Z,0.70
2017-09-13T13:29:01.438Z,1.20
2017-09-13T13:31:29.190Z,1.10
2017-09-13T13:33:57.644Z,1.27
2017-09-13T13:36:25.285Z,1.20
2017-09-13T13:38:52.941Z,1.20
2017-09-13T13:41:20.572Z,0.70
2017-09-13T13:43:48.236Z,0.90
2017-09-13T13:46:15.872Z,0.80
2017-09-13T13:48:44.277Z,0.80
2017-09-13T13:51:11.931Z,1.00
2017-09-13T13:53:39.632Z,0.80
2017-09-13T13:56:07.288Z,1.00
2017-09-13T13:58:34.978Z,1.50
2017-09-13T14:01:02.640Z,0.90
2017-09-13T14:03:30.388Z,1.13
2017-09-13T14:05:58.040Z,1.17
2017-09-13T14:08:25.669Z,0.90
2017-09-13T14:10:53.470Z,1.57
2017-09-13T14:13:21.088Z,0.90
2017-09-13T14:15:49.514Z,1.47
2017-09-13T14:18:17.141Z,0.80
2017-09-13T14:20:44.775Z,0.80
2017-09-13T14:23:13.208Z,0.80
2017-09-13T14:25:40.871Z,1.00
2017-09-13T14:28:08.525Z,0.80
2017-09-13T14:30:36.158Z,0.80
2017-09-13T14:33:03.830Z,0.73
2017-09-13T14:35:31.465Z,1.00
2017-09-13T14:37:59.864Z,1.20
2017-09-13T14:40:27.517Z,1.33
2017-09-13T14:42:55.165Z,1.30
2017-09-13T14:45:23.583Z,0.77
2017-09-13T14:47:51.201Z,1.03
2017-09-13T14:50:19.650Z,1.13
2017-09-13T14:52:47.274Z,0.77
2017-09-13T14:55:14.939Z,0.93
2017-09-13T14:57:42.561Z,1.17
2017-09-13T15:00:10.235Z,0.90
2017-09-13T15:02:38.638Z,1.17
2017-09-13T15:05:06.290Z,0.97
2017-09-13T15:07:33.932Z,0.80
2017-09-13T15:10:02.334Z,0.80
2017-09-13T15:12:29.989Z,1.53
2017-09-13T15:14:57.698Z,0.83
2017-09-13T15:17:25.353Z,0.80
2017-09-13T15:19:52.975Z,0.90
2017-09-13T15:22:22.024Z,0.90
2017-09-13T15:24:49.701Z,0.83
2017-09-13T15:27:17.363Z,0.70
2017-09-13T15:29:45.118Z,0.90
2017-09-13T15:32:12.741Z,0.87
2017-09-13T15:34:40.435Z,1.00
2017-09-13T15:37:08.052Z,0.93
2017-09-13T15:39:35.687Z,0.80
2017-09-13T15:42:04.229Z,0.97
2017-09-13T15:44:32.521Z,1.10
2017-09-13T15:47:00.169Z,0.80
2017-09-13T15:49:30.503Z,0.83
2017-09-13T15:51:58.996Z,0.83
2017-09-13T15:54:26.750Z,1.30
2017-09-13T15:56:54.500Z,0.93
2017-09-13T15:59:22.381Z,1.20
2017-09-13T16:01:50.035Z,0.67
2017-09-13T16:04:17.663Z,1.30
2017-09-13T16:06:45.306Z,0.70
2017-09-13T16:09:13.712Z,0.97
2017-09-13T16:11:41.370Z,0.90
2017-09-13T16:14:09.001Z,0.97
2017-09-13T16:16:37.461Z,1.10
2017-09-13T16:19:05.277Z,1.00
2017-09-13T16:21:33.050Z,1.00
2017-09-13T16:24:00.865Z,1.00
2017-09-13T16:26:28.491Z,1.20
2017-09-13T16:28:56.165Z,1.10
2017-09-13T16:31:23.790Z,1.10
2017-09-13T16:33:51.427Z,2.37
2017-09-13T16:36:19.852Z,0.87
2017-09-13T16:38:47.491Z,1.07
2017-09-13T16:41:15.140Z,0.70
2017-09-13T16:43:42.856Z,0.87
2017-09-13T16:46:10.501Z,1.00
2017-09-13T16:48:38.112Z,1.00
2017-09-13T16:51:07.678Z,1.30
2017-09-13T16:53:36.457Z,1.20
2017-09-13T16:56:05.035Z,0.90
2017-09-13T16:58:32.723Z,1.47
2017-09-13T17:01:00.598Z,1.17
2017-09-13T17:03:28.356Z,1.10
2017-09-13T17:05:56.034Z,1.43
2017-09-13T17:08:23.784Z,1.00
2017-09-13T17:10:51.425Z,1.50
2017-09-13T17:13:19.103Z,1.10
2017-09-13T17:15:46.848Z,0.70
2017-09-13T17:18:14.518Z,1.30
2017-09-13T17:20:42.137Z,1.20
2017-09-13T17:23:09.807Z,1.23
2017-09-13T17:25:37.453Z,1.20
2017-09-13T17:28:06.654Z,1.10
2017-09-13T17:30:34.309Z,1.40
2017-09-13T17:33:01.946Z,1.90
2017-09-13T17:35:29.593Z,1.13
2017-09-13T17:37:57.323Z,1.63
2017-09-13T17:40:24.983Z,1.00
2017-09-13T17:42:52.685Z,0.93
2017-09-13T17:45:20.354Z,1.50
2017-09-13T17:47:47.980Z,1.53
2017-09-13T17:50:15.936Z,1.10
2017-09-13T17:52:43.578Z,1.20
2017-09-13T17:55:11.219Z,1.83
2017-09-13T17:57:39.629Z,1.10
2017-09-13T18:00:10.811Z,1.17
2017-09-13T18:02:38.589Z,1.30
2017-09-13T18:05:06.211Z,1.90
2017-09-13T18:07:33.888Z,1.50
2017-09-13T18:10:01.496Z,1.23
2017-09-13T18:12:29.915Z,2.13
2017-09-13T18:14:57.547Z,1.30
2017-09-13T18:17:25.997Z,1.33
2017-09-13T18:19:53.628Z,1.43
2017-09-13T18:22:21.246Z,0.90
2017-09-13T18:24:49.667Z,1.10
2017-09-13T18:27:17.315Z,1.10
2017-09-13T18:29:46.405Z,1.20
2017-09-13T18:32:14.074Z,0.97
2017-09-13T18:34:41.750Z,1.30
2017-09-13T18:37:09.419Z,1.40
2017-09-13T18:39:37.928Z,1.10
2017-09-13T18:42:05.553Z,1.30
2017-09-13T18:44:33.211Z,1.00
2017-09-13T18:47:00.846Z,0.87
2017-09-13T18:49:28.509Z,1.30
2017-09-13T18:51:56.158Z,1.47
2017-09-13T18:54:24.556Z,0.90
2017-09-13T18:56:52.215Z,0.90
2017-09-13T18:59:19.852Z,1.03
2017-09-13T19:01:48.263Z,1.30
2017-09-13T19:04:15.879Z,1.30
2017-09-13T19:06:43.526Z,0.90
2017-09-13T19:09:11.158Z,1.10
2017-09-13T19:11:39.680Z,1.40
2017-09-13T19:14:07.418Z,1.00
2017-09-13T19:16:35.088Z,1.10
2017-09-13T19:19:02.723Z,1.40
2017-09-13T19:21:30.425Z,1.00
2017-09-13T19:23:58.169Z,1.00
2017-09-13T19:26:25.839Z,1.00
2017-09-13T19:28:53.508Z,1.23
2017-09-13T19:31:21.272Z,0.83
2017-09-13T19:33:48.885Z,1.00
2017-09-13T19:36:16.682Z,1.23
2017-09-13T19:38:44.471Z,1.03
2017-09-13T19:41:12.089Z,1.00
2017-09-13T19:43:39.742Z,2.23
2017-09-13T19:46:07.374Z,0.83
2017-09-13T19:48:35.786Z,0.80
2017-09-13T19:51:03.491Z,1.23
2017-09-13T19:53:31.236Z,0.97
2017-09-13T19:55:58.855Z,1.00
2017-09-13T19:58:27.295Z,1.10
2017-09-13T20:00:54.953Z,1.10
2017-09-13T20:03:22.600Z,1.47
2017-09-13T20:05:50.236Z,1.23
2017-09-13T20:08:17.947Z,1.27
2017-09-13T20:10:45.601Z,1.50
2017-09-13T20:13:13.234Z,1.10
2017-09-13T20:15:41.012Z,1.00
2017-09-13T20:18:08.776Z,0.70
2017-09-13T20:20:36.431Z,1.03
2017-09-13T20:23:04.209Z,1.20
2017-09-13T20:25:31.861Z,1.00
2017-09-13T20:27:59.511Z,1.10
2017-09-13T20:30:27.197Z,1.13
2017-09-13T20:32:54.874Z,0.87
2017-09-13T20:35:22.500Z,1.83
2017-09-13T20:37:50.137Z,0.93
2017-09-13T20:40:18.139Z,1.00
2017-09-13T20:42:45.838Z,0.80
2017-09-13T20:45:13.475Z,1.30
2017-09-13T20:47:41.134Z,1.13
2017-09-13T20:50:08.761Z,1.00
2017-09-13T20:52:36.411Z,1.30
2017-09-13T20:55:04.035Z,1.00
2017-09-13T20:57:31.673Z,0.80
2017-09-13T20:59:59.330Z,1.10
2017-09-13T21:02:26.945Z,1.23
2017-09-13T21:04:54.610Z,0.90
2017-09-13T21:07:23.017Z,0.80
2017-09-13T21:09:50.685Z,0.90
2017-09-13T21:12:18.321Z,1.10
2017-09-13T21:14:46.113Z,1.00
2017-09-13T21:17:13.754Z,0.97
2017-09-13T21:19:41.415Z,0.80
2017-09-13T21:22:09.082Z,0.83
2017-09-13T21:24:36.744Z,1.10
2017-09-13T21:27:04.379Z,1.10
2017-09-13T21:29:32.792Z,1.03
2017-09-13T21:32:00.437Z,1.20
2017-09-13T21:34:28.076Z,1.20
2017-09-13T21:36:55.730Z,1.17
2017-09-13T21:39:23.345Z,1.20
2017-09-13T21:41:51.000Z,1.03
2017-09-13T21:44:18.646Z,1.53
2017-09-13T21:46:46.407Z,1.17
2017-09-13T21:49:14.279Z,1.10
2017-09-13T21:51:41.928Z,1.13
2017-09-13T21:54:10.341Z,1.03
2017-09-13T21:56:38.006Z,1.00
2017-09-13T21:59:05.693Z,0.93
2017-09-13T22:01:33.333Z,1.07
2017-09-13T22:04:01.021Z,1.57
2017-09-13T22:06:28.643Z,1.40
2017-09-13T22:08:56.322Z,1.33
2017-09-13T22:11:23.941Z,0.80
2017-09-13T22:13:51.600Z,0.97
2017-09-13T22:16:20.006Z,1.13
2017-09-13T22:18:47.683Z,1.37
2017-09-13T22:21:15.359Z,1.07
2017-09-13T22:23:42.997Z,0.90
2017-09-13T22:26:10.651Z,1.10
2017-09-13T22:28:38.285Z,1.13
2017-09-13T22:31:05.962Z,0.90
2017-09-13T22:33:33.591Z,1.30
2017-09-13T22:36:01.226Z,1.20
2017-09-13T22:38:28.907Z,1.20
2017-09-13T22:40:56.547Z,0.90
2017-09-13T22:43:24.231Z,1.20
2017-09-13T22:45:51.875Z,1.07
2017-09-13T22:48:19.506Z,1.00
2017-09-13T22:50:47.195Z,1.17
2017-09-13T22:53:14.830Z,1.47
2017-09-13T22:55:42.491Z,0.87
2017-09-13T22:58:10.128Z,1.10
2017-09-13T23:00:38.581Z,1.20
2017-09-13T23:03:06.229Z,1.10
2017-09-13T23:05:33.912Z,1.17
2017-09-13T23:08:01.537Z,1.20
2017-09-13T23:10:29.207Z,1.10
2017-09-13T23:12:56.852Z,1.23
2017-09-13T23:15:24.488Z,2.60
2017-09-13T23:17:52.144Z,1.10
2017-09-13T23:20:20.529Z,0.93
2017-09-13T23:22:48.186Z,1.47
2017-09-13T23:25:15.822Z,0.93
2017-09-13T23:27:43.494Z,0.90
2017-09-13T23:30:11.887Z,1.17
2017-09-13T23:32:39.527Z,1.70
2017-09-13T23:35:07.961Z,1.00
2017-09-13T23:37:35.588Z,1.00
2017-09-13T23:40:03.257Z,1.20
2017-09-13T23:42:30.891Z,0.90
2017-09-13T23:44:58.537Z,1.30
2017-09-13T23:47:26.170Z,0.97
2017-09-13T23:49:53.855Z,0.90
2017-09-13T23:52:21.523Z,1.13
2017-09-13T23:54:49.200Z,0.67
2017-09-13T23:57:16.840Z,1.00
2017-09-13T23:59:44.505Z,0.87
